Decoded Metar for KEGV (EAGLE RIVER in WI, USA) (IATA:EGV) | Meteo·Mobile Aviation Weather
aviador You're here:

KEGV Decoded Metar

EAGLE RIVER in WI, USA
Report Time2018-11-21 07:15:00
UTC Time2018-11-21 07:31:34
Flight Rules mvfr MVFR
Wind330° at 08 Gusting to 15 kt
W.Decomp.*RWY 31: 7.4 kt HW 3.0 kt RCW
RWY 04: 3.0 kt HW 7.4 kt LCW
W.Rank330° ranks 12
Current wind is below 330° avg. (8.6)
Visibility6437 m
Phenomena:Light Snow
Clouds:Overcast 023 Hf
Expected CloudBase > 1,200 ft AGL from Temp-Dew spread
Ceiling2,300 ft
Temp-8°C (ISA -20)
Dew Point-11°C (79% RH)
AAT-14.0°C
QNH1017 hPa
Density Alt-902 ft
Elevation1,640 ft
Report Wrong Elevation
Raw Report
KEGV 210715Z AUTO 33008G15KT 4SM -SN OVC023 M08/M11 A3004 RMK AO2
T10801110=

Extra information for KEGV:More info

Metar Taf Metar & Taf Last 4 Metars F.Rules Stats Wind Profile Meteogram Temp Stats Airport Information Weather charts Add Link Nearby VenuesMetar ALERT Operation Metar Decoded Social comments

AIRNAV info for KEGV